Time;durP1;ratioP1;P1;durP2;ratioP2;P2;SDS_P1;SDS_P2;PMS_P1;PMS_P2;Temp;Humidity;BMP_temperature;BMP_pressure;BME280_temperature;BME280_humidity;BME280_pressure;Samples;Min_cycle;Max_cycle;Signal;HPM_P1;HPM_P2
2023/09/04 00:00:39;;;;;;;4.60;0.93;;;14.80;99.90;;;;;;4413732;32;20446;-74
2023/09/04 00:03:05;;;;;;;0.70;0.50;;;14.80;99.90;;;;;;4414822;32;20102;-74
2023/09/04 00:05:34;;;;;;;0.50;0.50;;;14.90;99.90;;;;;;4415434;32;20169;-74
2023/09/04 00:08:01;;;;;;;0.57;0.57;;;14.90;99.90;;;;;;4412544;32;20155;-74
2023/09/04 00:10:26;;;;;;;4.15;0.82;;;14.90;99.90;;;;;;4412359;32;20411;-74
2023/09/04 00:12:52;;;;;;;0.52;0.52;;;14.70;99.90;;;;;;4414145;32;20128;-73
2023/09/04 00:15:18;;;;;;;0.55;0.55;;;14.70;99.90;;;;;;4412927;32;20148;-74
2023/09/04 00:17:47;;;;;;;0.90;0.60;;;14.60;99.90;;;;;;4416977;32;20422;-74
2023/09/04 00:20:13;;;;;;;3.80;1.70;;;14.50;99.90;;;;;;4415210;32;20836;-74
2023/09/04 00:22:39;;;;;;;1.37;0.40;;;14.50;99.90;;;;;;4412669;32;20085;-73
2023/09/04 00:25:04;;;;;;;0.60;0.60;;;14.50;99.90;;;;;;4414377;32;20138;-73
2023/09/04 00:27:30;;;;;;;0.43;0.43;;;14.50;99.90;;;;;;4414223;32;20073;-73
2023/09/04 00:29:55;;;;;;;0.70;0.70;;;14.50;99.90;;;;;;4414809;32;20080;-73
2023/09/04 00:32:21;;;;;;;4.47;0.62;;;14.50;99.90;;;;;;4413011;32;20056;-73
2023/09/04 00:34:46;;;;;;;0.32;0.32;;;14.40;99.90;;;;;;4412930;32;20549;-73
2023/09/04 00:37:12;;;;;;;0.57;0.57;;;14.40;99.90;;;;;;4411925;32;20136;-73
2023/09/04 00:39:37;;;;;;;0.37;0.37;;;14.30;99.90;;;;;;4415163;32;20487;-74
2023/09/04 00:42:03;;;;;;;0.40;0.40;;;14.40;99.90;;;;;;4412514;32;20085;-73
2023/09/04 00:44:28;;;;;;;0.45;0.45;;;14.40;99.90;;;;;;4411436;32;20093;-73
2023/09/04 00:46:54;;;;;;;0.60;0.52;;;14.40;99.90;;;;;;4413235;32;20070;-73
2023/09/04 00:49:20;;;;;;;0.30;0.30;;;14.40;99.90;;;;;;4414777;32;20485;-73
2023/09/04 00:51:46;;;;;;;0.50;0.50;;;14.30;99.90;;;;;;4419107;32;20065;-73
2023/09/04 00:54:12;;;;;;;1.33;0.60;;;14.30;99.90;;;;;;4417336;32;20147;-73
2023/09/04 00:56:39;;;;;;;1.00;0.80;;;14.40;99.90;;;;;;4419092;32;20097;-73
2023/09/04 00:59:04;;;;;;;1.08;0.50;;;14.30;99.90;;;;;;4420380;32;21265;-73
2023/09/04 01:01:30;;;;;;;0.75;0.57;;;14.30;99.90;;;;;;4417196;32;20072;-73
2023/09/04 01:03:55;;;;;;;0.90;0.88;;;14.40;99.90;;;;;;4417887;32;20066;-73
2023/09/04 01:06:21;;;;;;;0.50;0.50;;;14.50;99.90;;;;;;4417897;32;20085;-73
2023/09/04 01:08:46;;;;;;;0.62;0.62;;;14.50;99.90;;;;;;4420973;32;20521;-72
2023/09/04 01:11:36;;;;;;;0.40;0.40;;;14.50;99.90;;;;;;4426438;32;20097;-72
2023/09/04 01:14:08;;;;;;;0.32;0.32;;;14.40;99.90;;;;;;4413671;32;20082;-72
2023/09/04 01:16:33;;;;;;;0.60;0.60;;;14.20;99.90;;;;;;4428349;32;20078;-72
2023/09/04 01:19:01;;;;;;;0.35;0.35;;;14.10;99.90;;;;;;4425673;32;20093;-72
2023/09/04 01:21:26;;;;;;;0.40;0.40;;;14.10;99.90;;;;;;4426832;32;20081;-74
2023/09/04 01:23:52;;;;;;;0.65;0.60;;;14.20;99.90;;;;;;4425955;32;20148;-73
2023/09/04 01:26:31;;;;;;;0.37;0.37;;;14.30;99.90;;;;;;4426115;32;20080;-74
2023/09/04 01:29:11;;;;;;;0.43;0.43;;;14.30;99.90;;;;;;4426819;32;20200;-74
2023/09/04 01:31:47;;;;;;;0.40;0.40;;;14.20;99.90;;;;;;4424393;32;20093;-72
2023/09/04 01:34:21;;;;;;;0.37;0.37;;;14.20;99.90;;;;;;4426952;32;20088;-74
2023/09/04 01:36:51;;;;;;;0.50;0.50;;;14.30;99.90;;;;;;4427095;32;20085;-74
2023/09/04 01:39:17;;;;;;;0.50;0.50;;;14.30;99.90;;;;;;4425381;32;20142;-74
2023/09/04 01:41:42;;;;;;;0.50;0.50;;;14.30;99.90;;;;;;4425458;32;20085;-74
2023/09/04 01:44:08;;;;;;;4.95;1.95;;;14.30;99.90;;;;;;4426440;32;20187;-74
2023/09/04 01:46:34;;;;;;;1.30;0.52;;;14.30;99.90;;;;;;4425910;32;20085;-74
2023/09/04 01:49:00;;;;;;;3.42;1.08;;;14.20;99.90;;;;;;4428007;32;20085;-74
2023/09/04 01:51:26;;;;;;;0.30;0.30;;;14.20;99.90;;;;;;4428199;32;20082;-73
2023/09/04 01:53:51;;;;;;;0.30;0.30;;;14.20;99.90;;;;;;4427718;32;20061;-73
2023/09/04 01:56:17;;;;;;;0.57;0.57;;;14.30;99.90;;;;;;4429276;32;20089;-73
2023/09/04 01:58:42;;;;;;;0.73;0.60;;;14.30;99.90;;;;;;4425587;32;20061;-74
2023/09/04 02:01:08;;;;;;;0.32;0.32;;;14.20;99.90;;;;;;4427640;32;20098;-74
2023/09/04 02:03:33;;;;;;;0.40;0.40;;;14.10;99.90;;;;;;4429339;32;20062;-73
2023/09/04 02:05:59;;;;;;;0.37;0.37;;;14.10;99.90;;;;;;4431219;32;20101;-74
2023/09/04 02:08:25;;;;;;;0.50;0.50;;;14.00;99.90;;;;;;4430529;32;20076;-74
2023/09/04 02:10:50;;;;;;;0.50;0.50;;;14.10;99.90;;;;;;4432792;32;20185;-73
2023/09/04 02:13:16;;;;;;;0.60;0.60;;;14.10;99.90;;;;;;4431548;32;20070;-74
2023/09/04 02:15:41;;;;;;;0.60;0.60;;;14.20;99.90;;;;;;4428949;32;20105;-74
2023/09/04 02:18:07;;;;;;;0.30;0.30;;;14.20;99.90;;;;;;4431749;32;20086;-74
2023/09/04 02:20:32;;;;;;;0.30;0.30;;;14.10;99.90;;;;;;4424190;32;20094;-74
2023/09/04 02:22:58;;;;;;;0.32;0.32;;;14.10;99.90;;;;;;4420897;32;20061;-74
2023/09/04 02:25:25;;;;;;;0.47;0.47;;;14.00;99.90;;;;;;4422160;32;20097;-74
2023/09/04 02:27:51;;;;;;;0.40;0.40;;;14.00;99.90;;;;;;4420942;32;20539;-74
2023/09/04 02:30:16;;;;;;;5.05;1.37;;;13.90;99.90;;;;;;4421598;32;20082;-74
2023/09/04 02:32:43;;;;;;;4.03;1.90;;;13.90;99.90;;;;;;4420521;32;20255;-74
2023/09/04 02:35:08;;;;;;;0.80;0.80;;;14.00;99.90;;;;;;4422470;32;20097;-74
2023/09/04 02:37:34;;;;;;;0.40;0.40;;;14.00;99.90;;;;;;4422766;32;20097;-75
2023/09/04 02:39:59;;;;;;;0.40;0.40;;;13.90;99.90;;;;;;4422326;32;20154;-74
2023/09/04 02:42:28;;;;;;;0.40;0.40;;;13.80;99.90;;;;;;4420020;32;20085;-74
2023/09/04 02:44:54;;;;;;;0.40;0.40;;;13.90;99.90;;;;;;4421945;32;20092;-74
2023/09/04 02:47:19;;;;;;;0.47;0.47;;;13.80;99.90;;;;;;4420308;32;20714;-74
2023/09/04 02:49:44;;;;;;;0.35;0.35;;;13.90;99.90;;;;;;4415647;32;20070;-74
2023/09/04 02:52:11;;;;;;;1.50;0.40;;;13.90;99.90;;;;;;4416231;32;20144;-74
2023/09/04 02:54:37;;;;;;;0.50;0.50;;;13.90;99.90;;;;;;4412843;32;20112;-74
2023/09/04 02:57:02;;;;;;;0.50;0.50;;;13.90;99.90;;;;;;4416734;32;20135;-74
2023/09/04 02:59:28;;;;;;;0.40;0.40;;;13.90;99.90;;;;;;4414905;32;21273;-74
2023/09/04 03:01:54;;;;;;;0.30;0.30;;;14.00;99.90;;;;;;4415687;32;20094;-74
2023/09/04 03:04:19;;;;;;;0.52;0.50;;;14.00;99.90;;;;;;4413903;32;20097;-74
2023/09/04 03:06:45;;;;;;;0.40;0.40;;;13.90;99.90;;;;;;4414014;32;20097;-74
2023/09/04 03:09:10;;;;;;;0.50;0.50;;;13.90;99.90;;;;;;4414230;32;20466;-74
2023/09/04 03:11:36;;;;;;;1.35;1.05;;;13.90;99.90;;;;;;4414932;32;20152;-74
2023/09/04 03:14:01;;;;;;;0.52;0.52;;;14.00;99.90;;;;;;4416272;32;20143;-74
2023/09/04 03:16:29;;;;;;;1.85;1.08;;;14.00;99.90;;;;;;4412145;32;20073;-74
2023/09/04 03:18:55;;;;;;;0.32;0.32;;;14.00;99.90;;;;;;4413486;32;20073;-74
2023/09/04 03:21:20;;;;;;;0.98;0.50;;;14.00;99.90;;;;;;4412110;32;20542;-74
2023/09/04 03:23:50;;;;;;;0.82;0.43;;;13.90;99.90;;;;;;4413739;32;20497;-75
2023/09/04 03:26:16;;;;;;;4.47;1.23;;;13.80;99.90;;;;;;4414853;32;20085;-74
2023/09/04 03:28:42;;;;;;;0.73;0.50;;;13.80;99.90;;;;;;4415433;32;20132;-74
2023/09/04 03:31:15;;;;;;;0.70;0.62;;;13.90;99.90;;;;;;4422831;32;20081;-74
2023/09/04 03:33:41;;;;;;;1.45;0.57;;;13.90;99.90;;;;;;4423003;32;20078;-73
2023/09/04 03:36:09;;;;;;;3.75;0.60;;;13.70;99.90;;;;;;4421617;32;20450;-74
2023/09/04 03:38:35;;;;;;;0.62;0.62;;;13.80;99.90;;;;;;4422087;32;20068;-74
2023/09/04 03:41:00;;;;;;;1.62;0.70;;;13.80;99.90;;;;;;4420999;32;20069;-74
2023/09/04 03:43:28;;;;;;;0.40;0.40;;;13.80;99.90;;;;;;4425924;32;20564;-74
2023/09/04 03:45:53;;;;;;;0.40;0.40;;;13.80;99.90;;;;;;4420532;32;20489;-73
2023/09/04 03:48:19;;;;;;;0.50;0.50;;;13.80;99.90;;;;;;4419958;32;20140;-73
2023/09/04 03:50:44;;;;;;;0.80;0.80;;;13.70;99.90;;;;;;4422361;32;20098;-74
2023/09/04 03:53:09;;;;;;;0.40;0.40;;;13.60;99.90;;;;;;4422392;32;20735;-74
2023/09/04 03:55:35;;;;;;;0.45;0.45;;;13.70;99.90;;;;;;4425428;32;20189;-73
2023/09/04 03:58:00;;;;;;;0.43;0.40;;;13.60;99.90;;;;;;4419731;32;20097;-73
2023/09/04 04:00:26;;;;;;;0.47;0.47;;;13.70;99.90;;;;;;4422594;32;20066;-74
2023/09/04 04:02:51;;;;;;;0.40;0.40;;;13.60;99.90;;;;;;4419394;32;20097;-74
2023/09/04 04:05:19;;;;;;;0.60;0.60;;;13.60;99.90;;;;;;4424179;32;20089;-74
2023/09/04 04:07:44;;;;;;;0.40;0.40;;;13.60;99.90;;;;;;4422740;32;20089;-73
2023/09/04 04:10:10;;;;;;;0.30;0.30;;;13.60;99.90;;;;;;4421596;32;20714;-73
2023/09/04 04:12:36;;;;;;;0.50;0.50;;;13.70;99.90;;;;;;4422251;32;20081;-74
2023/09/04 04:15:06;;;;;;;2.83;1.12;;;13.70;99.90;;;;;;4421287;32;20393;-72
2023/09/04 04:17:32;;;;;;;0.57;0.57;;;13.70;99.90;;;;;;4420507;32;20089;-73
2023/09/04 04:19:58;;;;;;;0.70;0.70;;;13.70;99.90;;;;;;4422893;32;20809;-74
2023/09/04 04:22:24;;;;;;;0.80;0.80;;;13.70;99.90;;;;;;4415844;32;20117;-74
2023/09/04 04:24:50;;;;;;;0.50;0.50;;;13.60;99.90;;;;;;4419435;32;20425;-74
2023/09/04 04:27:16;;;;;;;0.32;0.32;;;13.60;99.90;;;;;;4420236;32;20081;-74
2023/09/04 04:29:44;;;;;;;0.35;0.35;;;13.70;99.90;;;;;;4419252;32;20105;-74
2023/09/04 04:32:10;;;;;;;0.60;0.60;;;13.70;99.90;;;;;;4417522;32;20109;-74
2023/09/04 04:34:35;;;;;;;0.40;0.40;;;13.70;99.90;;;;;;4419397;32;20536;-74
2023/09/04 04:37:01;;;;;;;4.47;1.20;;;13.70;99.90;;;;;;4422653;32;20570;-74
2023/09/04 04:39:26;;;;;;;0.40;0.40;;;13.70;99.90;;;;;;4418703;32;20078;-74
2023/09/04 04:41:53;;;;;;;0.30;0.30;;;13.80;99.90;;;;;;4412124;32;20196;-73
2023/09/04 04:44:18;;;;;;;0.75;0.52;;;13.80;99.90;;;;;;4414305;32;20485;-73
2023/09/04 04:46:46;;;;;;;0.30;0.30;;;13.80;99.90;;;;;;4412187;32;20081;-73
2023/09/04 04:49:11;;;;;;;0.35;0.35;;;13.80;99.90;;;;;;4411816;32;20096;-73
2023/09/04 04:51:37;;;;;;;0.73;0.68;;;13.80;99.90;;;;;;4413385;32;21020;-74
2023/09/04 04:54:02;;;;;;;0.40;0.40;;;13.70;99.90;;;;;;4412715;32;20082;-73
2023/09/04 04:56:28;;;;;;;0.40;0.40;;;13.60;99.90;;;;;;4413752;32;20857;-74
2023/09/04 04:58:53;;;;;;;0.40;0.40;;;13.70;99.90;;;;;;4412485;32;20575;-74
2023/09/04 05:01:19;;;;;;;0.40;0.40;;;13.70;99.90;;;;;;4409211;32;20168;-74
2023/09/04 05:03:44;;;;;;;0.70;0.43;;;13.80;99.90;;;;;;4413026;32;20101;-73
2023/09/04 05:06:10;;;;;;;0.40;0.40;;;13.80;99.90;;;;;;4409659;32;20164;-73
2023/09/04 05:08:36;;;;;;;0.75;0.75;;;13.80;99.90;;;;;;4413158;32;20093;-74
2023/09/04 05:11:04;;;;;;;0.70;0.60;;;13.70;99.90;;;;;;4411963;32;20084;-73
2023/09/04 05:13:29;;;;;;;1.55;0.77;;;13.70;99.90;;;;;;4412032;32;20080;-73
2023/09/04 05:15:55;;;;;;;1.15;0.50;;;13.70;99.90;;;;;;4409886;32;20065;-73
2023/09/04 05:18:21;;;;;;;19.70;0.68;;;13.80;99.90;;;;;;4393142;32;20137;-74
2023/09/04 05:20:47;;;;;;;0.62;0.62;;;13.80;99.90;;;;;;4409129;32;20081;-72
2023/09/04 05:23:13;;;;;;;0.50;0.50;;;13.70;99.90;;;;;;4412198;32;20152;-72
2023/09/04 05:25:49;;;;;;;0.73;0.73;;;13.80;99.90;;;;;;4405442;32;20638;-72
2023/09/04 05:28:15;;;;;;;0.40;0.40;;;13.90;99.90;;;;;;4404839;32;20124;-73
2023/09/04 05:30:40;;;;;;;2.10;0.93;;;13.80;99.90;;;;;;4397572;32;20579;-74
2023/09/04 05:33:06;;;;;;;0.70;0.70;;;13.90;99.90;;;;;;4396432;32;20061;-72
2023/09/04 05:35:32;;;;;;;0.95;0.77;;;13.90;99.90;;;;;;4404643;32;21136;-73
2023/09/04 05:37:58;;;;;;;0.57;0.57;;;14.00;99.90;;;;;;4403998;32;20578;-74
2023/09/04 05:40:28;;;;;;;0.60;0.60;;;14.10;99.90;;;;;;4410564;32;20118;-73
2023/09/04 05:42:54;;;;;;;0.80;0.60;;;14.20;99.90;;;;;;4407728;32;20717;-73
2023/09/04 05:45:20;;;;;;;0.45;0.45;;;14.20;99.90;;;;;;4399241;32;20200;-74
2023/09/04 05:47:46;;;;;;;0.32;0.32;;;14.30;99.90;;;;;;4401765;32;20201;-73
2023/09/04 05:50:13;;;;;;;0.70;0.70;;;14.40;99.90;;;;;;4405866;32;20090;-73
2023/09/04 05:52:39;;;;;;;0.40;0.40;;;14.40;99.90;;;;;;4409256;32;20077;-75
2023/09/04 05:55:06;;;;;;;0.30;0.30;;;14.50;99.90;;;;;;4403211;32;20155;-74
2023/09/04 05:57:32;;;;;;;0.40;0.40;;;14.60;99.90;;;;;;4399188;32;20105;-73
2023/09/04 05:59:59;;;;;;;1.15;1.02;;;14.70;99.90;;;;;;4384544;32;20553;-75
2023/09/04 06:02:27;;;;;;;0.73;0.70;;;14.70;99.90;;;;;;4385142;32;20093;-75
2023/09/04 06:04:53;;;;;;;0.32;0.32;;;14.70;99.90;;;;;;4388007;32;20456;-75
2023/09/04 06:07:18;;;;;;;0.55;0.55;;;14.80;99.90;;;;;;4382631;32;20179;-74
2023/09/04 06:09:44;;;;;;;0.52;0.52;;;14.90;99.90;;;;;;4392366;32;20627;-74
2023/09/04 06:12:12;;;;;;;0.45;0.45;;;15.00;99.90;;;;;;4397459;32;20826;-75
2023/09/04 06:14:38;;;;;;;0.90;0.65;;;15.00;99.90;;;;;;4398381;32;20085;-73
2023/09/04 06:17:04;;;;;;;0.60;0.60;;;15.10;99.90;;;;;;4393102;32;20615;-75
2023/09/04 06:19:30;;;;;;;0.50;0.50;;;15.20;99.90;;;;;;4388148;32;20109;-74
2023/09/04 06:21:57;;;;;;;12.82;0.65;;;15.40;99.90;;;;;;4392939;32;20085;-74
2023/09/04 06:24:22;;;;;;;0.75;0.60;;;15.40;99.90;;;;;;4395619;32;20080;-75
2023/09/04 06:26:48;;;;;;;0.50;0.50;;;15.50;99.90;;;;;;4395772;32;20089;-75
2023/09/04 06:29:16;;;;;;;0.40;0.40;;;15.70;99.90;;;;;;4394404;32;20165;-73
2023/09/04 06:31:42;;;;;;;0.50;0.50;;;15.80;99.90;;;;;;4387807;32;20949;-75
2023/09/04 06:34:08;;;;;;;1.02;0.50;;;15.80;99.90;;;;;;4388765;32;20088;-76
2023/09/04 06:36:34;;;;;;;0.40;0.40;;;15.90;99.90;;;;;;4398459;32;20081;-75
2023/09/04 06:39:00;;;;;;;0.50;0.50;;;16.00;99.90;;;;;;4391584;32;20098;-74
2023/09/04 06:41:26;;;;;;;1.70;0.70;;;16.10;99.90;;;;;;4389188;32;20082;-75
2023/09/04 06:43:52;;;;;;;0.30;0.30;;;16.20;99.90;;;;;;4385521;32;20108;-75
2023/09/04 06:46:17;;;;;;;0.43;0.43;;;16.30;99.90;;;;;;4396764;32;20553;-73
2023/09/04 06:48:43;;;;;;;20.17;0.82;;;16.40;99.90;;;;;;4394196;32;20128;-75
2023/09/04 06:51:08;;;;;;;0.50;0.50;;;16.50;99.90;;;;;;4395288;32;20392;-74
2023/09/04 06:53:34;;;;;;;0.40;0.40;;;16.60;99.90;;;;;;4395417;32;20485;-74
2023/09/04 06:56:01;;;;;;;0.43;0.43;;;16.70;99.90;;;;;;4395947;32;21067;-75
2023/09/04 06:58:29;;;;;;;1.12;0.55;;;16.80;99.90;;;;;;4394163;32;20114;-74
2023/09/04 07:00:55;;;;;;;0.43;0.43;;;16.80;99.90;;;;;;4389667;32;20144;-75
2023/09/04 07:03:22;;;;;;;0.40;0.40;;;16.90;99.90;;;;;;4394507;32;20093;-75
2023/09/04 07:05:48;;;;;;;0.30;0.30;;;17.00;99.90;;;;;;4389976;32;20077;-75
2023/09/04 07:08:13;;;;;;;3.10;1.62;;;17.10;99.90;;;;;;4380790;32;20600;-74
2023/09/04 07:10:39;;;;;;;1.30;0.75;;;17.20;99.90;;;;;;4376381;32;20180;-74
2023/09/04 07:13:04;;;;;;;0.30;0.30;;;17.20;99.90;;;;;;4379412;32;20941;-75
2023/09/04 07:15:30;;;;;;;0.60;0.60;;;17.30;99.90;;;;;;4388663;32;20750;-74
2023/09/04 07:17:59;;;;;;;0.40;0.40;;;17.30;99.90;;;;;;4389125;32;20113;-74
2023/09/04 07:20:25;;;;;;;0.40;0.40;;;17.40;99.90;;;;;;4395736;32;20093;-73
2023/09/04 07:22:50;;;;;;;0.60;0.57;;;17.40;99.90;;;;;;4391783;32;20093;-75
2023/09/04 07:25:16;;;;;;;0.35;0.35;;;17.50;99.90;;;;;;4382571;32;20106;-74
2023/09/04 07:27:41;;;;;;;0.40;0.40;;;17.60;99.90;;;;;;4385147;32;20109;-74
2023/09/04 07:30:07;;;;;;;0.40;0.40;;;17.60;99.90;;;;;;4382477;32;20096;-73
2023/09/04 07:32:32;;;;;;;0.40;0.40;;;17.70;99.90;;;;;;4354849;32;20417;-73
2023/09/04 07:34:59;;;;;;;0.40;0.40;;;17.80;99.90;;;;;;4368330;32;20889;-74
2023/09/04 07:37:28;;;;;;;0.40;0.40;;;17.90;99.90;;;;;;4383181;32;20220;-75
2023/09/04 07:39:54;;;;;;;1.90;0.47;;;18.00;99.90;;;;;;4389091;32;20112;-75
2023/09/04 07:42:21;;;;;;;0.30;0.30;;;18.00;99.90;;;;;;4394770;32;21665;-76
2023/09/04 07:44:47;;;;;;;0.70;0.70;;;18.10;99.90;;;;;;4393873;32;20093;-76
2023/09/04 07:47:13;;;;;;;0.50;0.50;;;18.20;99.90;;;;;;4389214;32;20106;-76
2023/09/04 07:49:38;;;;;;;0.40;0.40;;;18.30;99.90;;;;;;4387469;32;20085;-75
2023/09/04 07:52:04;;;;;;;3.03;1.20;;;18.30;99.90;;;;;;4364516;32;20121;-74
2023/09/04 07:54:29;;;;;;;1.77;0.70;;;18.40;99.90;;;;;;4378286;32;20399;-75
2023/09/04 07:56:55;;;;;;;0.60;0.60;;;18.50;99.90;;;;;;4370501;32;20105;-74
2023/09/04 07:59:20;;;;;;;0.35;0.35;;;18.50;99.90;;;;;;4367011;32;20245;-76
2023/09/04 08:01:46;;;;;;;0.20;0.20;;;18.60;99.90;;;;;;4373194;32;20526;-76
2023/09/04 08:04:13;;;;;;;0.40;0.40;;;18.60;99.90;;;;;;4377024;32;20244;-75
2023/09/04 08:06:39;;;;;;;0.40;0.40;;;18.70;99.90;;;;;;4384743;32;20110;-75
2023/09/04 08:09:05;;;;;;;1.10;0.50;;;18.80;99.90;;;;;;4379272;32;20542;-74
2023/09/04 08:11:30;;;;;;;0.30;0.30;;;18.90;99.90;;;;;;4379823;32;20089;-73
2023/09/04 08:13:56;;;;;;;0.30;0.30;;;18.90;99.90;;;;;;4380160;32;20208;-74
2023/09/04 08:16:22;;;;;;;0.30;0.30;;;18.90;99.90;;;;;;4373410;32;21028;-73
2023/09/04 08:18:47;;;;;;;0.35;0.35;;;19.10;99.90;;;;;;4363123;32;20113;-75
2023/09/04 08:21:13;;;;;;;0.40;0.40;;;19.20;99.90;;;;;;4370081;32;20184;-73
2023/09/04 08:23:38;;;;;;;0.40;0.40;;;19.30;99.90;;;;;;4370533;32;20862;-73
2023/09/04 08:26:04;;;;;;;0.30;0.30;;;19.40;99.90;;;;;;4375400;32;20156;-72
2023/09/04 08:28:30;;;;;;;0.30;0.30;;;19.50;99.90;;;;;;4384877;32;20233;-74
2023/09/04 08:30:57;;;;;;;0.40;0.40;;;19.50;99.90;;;;;;4379861;32;20616;-73
2023/09/04 08:33:22;;;;;;;0.30;0.30;;;19.70;99.90;;;;;;4380160;32;21066;-74
2023/09/04 08:35:48;;;;;;;0.30;0.30;;;19.70;99.90;;;;;;4372028;32;20093;-74
2023/09/04 08:38:13;;;;;;;0.40;0.40;;;19.80;99.90;;;;;;4378727;32;20098;-74
2023/09/04 08:40:41;;;;;;;0.40;0.40;;;19.90;99.90;;;;;;4377627;32;20098;-73
2023/09/04 08:43:07;;;;;;;1.10;0.93;;;19.90;99.90;;;;;;4376364;32;20109;-73
2023/09/04 08:45:35;;;;;;;0.20;0.20;;;20.00;99.90;;;;;;4364345;32;20817;-74
2023/09/04 08:48:02;;;;;;;0.52;0.43;;;20.10;99.90;;;;;;4368687;32;21054;-73
2023/09/04 08:50:29;;;;;;;0.45;0.45;;;20.20;99.90;;;;;;4372765;32;20891;-73
2023/09/04 08:52:54;;;;;;;0.30;0.30;;;20.30;99.90;;;;;;4367850;32;20103;-73
2023/09/04 08:55:20;;;;;;;0.30;0.30;;;20.40;99.90;;;;;;4370730;32;20203;-73
2023/09/04 08:57:46;;;;;;;0.37;0.37;;;20.50;99.90;;;;;;4374260;32;20150;-73
2023/09/04 09:00:12;;;;;;;0.28;0.28;;;20.70;99.90;;;;;;4370621;32;20438;-74
2023/09/04 09:02:39;;;;;;;0.40;0.40;;;20.70;99.90;;;;;;4373753;32;20148;-74
2023/09/04 09:05:07;;;;;;;0.20;0.20;;;20.70;99.90;;;;;;4361934;32;20468;-75
2023/09/04 09:07:34;;;;;;;0.20;0.20;;;20.80;99.90;;;;;;4372676;32;20093;-76
2023/09/04 09:10:03;;;;;;;0.30;0.30;;;20.80;99.90;;;;;;4376451;32;20239;-75
2023/09/04 09:12:28;;;;;;;0.30;0.30;;;20.90;99.90;;;;;;4378816;32;20081;-76
2023/09/04 09:14:57;;;;;;;0.25;0.25;;;21.00;99.90;;;;;;4382452;32;20101;-76
2023/09/04 09:17:23;;;;;;;0.20;0.20;;;21.10;99.90;;;;;;4378737;32;20096;-75
2023/09/04 09:19:48;;;;;;;0.20;0.20;;;21.20;99.90;;;;;;4387199;32;20140;-75
2023/09/04 09:22:16;;;;;;;0.45;0.43;;;21.30;99.90;;;;;;4383085;32;20290;-77
2023/09/04 09:24:59;;;;;;;0.30;0.30;;;21.30;99.90;;;;;;4361909;32;20106;-78
2023/09/04 09:27:28;;;;;;;0.40;0.40;;;21.40;99.90;;;;;;4364223;32;20093;-75
2023/09/04 09:29:57;;;;;;;0.45;0.45;;;21.50;99.90;;;;;;4379674;32;20105;-75
2023/09/04 09:32:26;;;;;;;0.40;0.40;;;21.60;99.90;;;;;;4380610;32;20100;-75
2023/09/04 09:34:54;;;;;;;1.45;0.47;;;21.70;99.90;;;;;;4389973;32;20197;-75
2023/09/04 09:37:23;;;;;;;0.30;0.30;;;21.70;99.90;;;;;;4396167;32;20112;-75
2023/09/04 09:39:48;;;;;;;2.00;1.02;;;21.80;99.90;;;;;;4389175;32;20097;-74
2023/09/04 09:42:14;;;;;;;0.30;0.30;;;21.80;99.90;;;;;;4388779;32;20105;-74
2023/09/04 09:44:39;;;;;;;0.30;0.30;;;22.00;99.90;;;;;;4384280;32;20140;-75
2023/09/04 09:47:07;;;;;;;0.28;0.28;;;22.20;99.90;;;;;;4383580;32;20624;-75
2023/09/04 09:49:36;;;;;;;0.20;0.20;;;22.40;99.90;;;;;;4385376;32;21096;-74
2023/09/04 09:52:05;;;;;;;0.35;0.32;;;22.40;99.90;;;;;;4387410;32;20114;-75
2023/09/04 09:54:47;;;;;;;0.20;0.20;;;22.40;99.90;;;;;;4387948;32;20786;-75
2023/09/04 09:57:14;;;;;;;0.30;0.30;;;22.50;99.90;;;;;;4381166;32;20105;-75
2023/09/04 09:59:45;;;;;;;0.25;0.25;;;22.70;99.90;;;;;;4386227;32;20089;-74
2023/09/04 10:02:20;;;;;;;0.20;0.20;;;22.70;99.90;;;;;;4392691;32;20102;-74
2023/09/04 10:04:46;;;;;;;0.30;0.30;;;22.90;99.90;;;;;;4397599;32;20097;-74
2023/09/04 10:07:16;;;;;;;0.30;0.30;;;23.00;99.90;;;;;;4391585;32;20154;-74
2023/09/04 10:09:44;;;;;;;0.20;0.20;;;23.20;99.90;;;;;;4391099;32;20092;-74
2023/09/04 10:12:24;;;;;;;0.40;0.40;;;23.20;99.90;;;;;;4390967;32;20100;-74
2023/09/04 10:14:55;;;;;;;0.30;0.30;;;23.20;99.90;;;;;;4388714;32;20097;-75
2023/09/04 10:17:35;;;;;;;0.30;0.30;;;23.20;99.90;;;;;;4377538;32;20393;-76
2023/09/04 10:20:04;;;;;;;4.47;0.28;;;23.30;99.90;;;;;;4390760;32;20796;-74
2023/09/04 10:22:36;;;;;;;0.20;0.20;;;23.60;99.90;;;;;;4392721;32;20106;-75
2023/09/04 10:25:09;;;;;;;0.20;0.20;;;23.80;99.90;;;;;;4391090;32;20089;-75
2023/09/04 10:27:42;;;;;;;0.28;0.28;;;23.80;99.90;;;;;;4402501;32;20085;-73
2023/09/04 10:30:12;;;;;;;0.10;0.10;;;24.10;99.90;;;;;;4398337;32;20085;-73
2023/09/04 10:32:37;;;;;;;0.22;0.22;;;24.10;99.90;;;;;;4396895;32;20139;-72
2023/09/04 10:35:05;;;;;;;0.30;0.30;;;24.20;99.90;;;;;;4396622;32;20110;-73
2023/09/04 10:37:31;;;;;;;0.10;0.10;;;24.30;99.90;;;;;;4396094;32;20695;-73
2023/09/04 10:39:57;;;;;;;0.20;0.20;;;24.30;99.90;;;;;;4409401;32;20152;-72
2023/09/04 10:42:27;;;;;;;0.30;0.30;;;24.30;99.90;;;;;;4402037;32;20477;-72
2023/09/04 10:44:53;;;;;;;0.10;0.10;;;24.60;99.90;;;;;;4404119;32;20154;-75
2023/09/04 10:47:20;;;;;;;0.85;0.47;;;24.80;99.90;;;;;;4398911;32;20089;-74
2023/09/04 10:49:47;;;;;;;0.10;0.10;;;24.70;99.90;;;;;;4400359;32;20686;-72
2023/09/04 10:52:14;;;;;;;0.65;0.52;;;24.80;99.90;;;;;;4394958;32;20093;-73
2023/09/04 10:54:41;;;;;;;0.20;0.20;;;24.90;99.90;;;;;;4387267;32;20097;-72
2023/09/04 10:57:13;;;;;;;0.37;0.32;;;25.10;99.90;;;;;;4386253;32;20311;-71
2023/09/04 10:59:56;;;;;;;0.10;0.10;;;25.30;99.90;;;;;;4394959;32;20479;-73
2023/09/04 11:02:29;;;;;;;0.10;0.10;;;25.40;99.90;;;;;;4394393;32;20108;-74
2023/09/04 11:04:55;;;;;;;0.20;0.20;;;25.50;99.90;;;;;;4399509;32;20096;-74
2023/09/04 11:07:25;;;;;;;0.13;0.13;;;25.70;99.90;;;;;;4391703;32;20101;-73
2023/09/04 11:09:52;;;;;;;0.20;0.20;;;25.90;99.90;;;;;;4385120;32;20097;-73
2023/09/04 11:12:19;;;;;;;0.00;0.00;;;26.10;99.90;;;;;;4390096;32;20112;-73
2023/09/04 11:14:46;;;;;;;0.37;0.37;;;26.20;99.90;;;;;;4398571;32;20085;-73
2023/09/04 11:17:14;;;;;;;1.05;0.57;;;26.50;99.90;;;;;;4398164;32;20914;-74
2023/09/04 11:19:40;;;;;;;0.30;0.15;;;26.30;99.90;;;;;;4389883;32;20153;-73
2023/09/04 11:22:13;;;;;;;0.30;0.30;;;26.30;99.90;;;;;;4382483;32;20092;-73
2023/09/04 11:24:39;;;;;;;0.20;0.20;;;26.50;99.90;;;;;;4383590;32;20623;-73
2023/09/04 11:27:04;;;;;;;0.45;0.17;;;26.60;99.90;;;;;;4395542;32;20081;-73
2023/09/04 11:29:32;;;;;;;0.10;0.10;;;26.60;99.90;;;;;;4394093;32;20105;-73
2023/09/04 11:31:58;;;;;;;0.20;0.20;;;26.80;99.90;;;;;;4393121;32;20844;-73
2023/09/04 11:34:25;;;;;;;0.30;0.20;;;27.10;99.90;;;;;;4389288;32;20522;-73
2023/09/04 11:36:51;;;;;;;0.10;0.10;;;27.40;99.90;;;;;;4387241;32;20110;-73
2023/09/04 11:39:16;;;;;;;0.08;0.08;;;27.60;99.90;;;;;;4389638;32;20159;-73
2023/09/04 11:41:42;;;;;;;0.10;0.10;;;27.90;99.90;;;;;;4382933;32;20434;-73
2023/09/04 11:44:08;;;;;;;0.10;0.10;;;28.20;99.00;;;;;;4385499;32;20484;-72
2023/09/04 11:46:34;;;;;;;0.60;0.20;;;28.20;99.40;;;;;;4379021;32;20106;-74
2023/09/04 11:49:04;;;;;;;0.08;0.08;;;28.50;98.00;;;;;;4375395;32;123780;-73
2023/09/04 11:51:32;;;;;;;0.10;0.10;;;28.30;98.60;;;;;;4373622;32;20203;-73
2023/09/04 11:53:57;;;;;;;0.10;0.10;;;28.60;98.50;;;;;;4376972;32;20288;-73
2023/09/04 11:56:23;;;;;;;0.17;0.17;;;29.50;97.00;;;;;;4382244;32;20568;-73
2023/09/04 11:58:48;;;;;;;4.40;0.15;;;29.30;97.60;;;;;;4545431;26;20101;-86
2023/09/04 12:01:14;;;;;;;0.13;0.13;;;29.10;97.80;;;;;;4411330;26;20564;-63
2023/09/04 12:03:40;;;;;;;0.47;0.47;;;29.10;97.50;;;;;;4378776;32;20619;-66
2023/09/04 12:06:06;;;;;;;0.20;0.20;;;29.20;96.60;;;;;;4385995;32;20740;-63
2023/09/04 12:08:31;;;;;;;0.10;0.10;;;29.40;96.50;;;;;;4381753;32;20121;-64
2023/09/04 12:10:57;;;;;;;0.35;0.17;;;29.60;96.70;;;;;;4383718;32;20090;-63
2023/09/04 12:13:23;;;;;;;0.20;0.20;;;29.80;95.30;;;;;;4386644;32;21135;-64
2023/09/04 12:15:48;;;;;;;0.15;0.15;;;30.10;95.30;;;;;;4369621;32;20097;-64
2023/09/04 12:18:15;;;;;;;0.28;0.28;;;30.40;95.00;;;;;;4383214;32;20094;-64
2023/09/04 12:20:42;;;;;;;0.52;0.30;;;30.20;94.20;;;;;;4374261;32;20105;-64
2023/09/04 12:23:08;;;;;;;0.10;0.10;;;30.40;94.00;;;;;;4374992;32;21263;-64
2023/09/04 12:25:40;;;;;;;0.20;0.20;;;30.40;94.40;;;;;;4361912;32;20093;-64
2023/09/04 12:28:07;;;;;;;0.10;0.10;;;30.60;93.90;;;;;;4361609;32;20109;-64
2023/09/04 12:30:35;;;;;;;0.05;0.05;;;30.50;93.70;;;;;;4378781;32;20441;-64
2023/09/04 12:33:01;;;;;;;0.10;0.10;;;30.50;93.60;;;;;;4378928;32;20129;-65
2023/09/04 12:35:26;;;;;;;0.20;0.20;;;30.50;93.00;;;;;;4370735;32;20525;-65
2023/09/04 12:37:53;;;;;;;0.15;0.15;;;30.40;92.90;;;;;;4375278;32;20110;-64
2023/09/04 12:40:21;;;;;;;0.10;0.10;;;30.90;93.10;;;;;;4398504;32;20306;-65
2023/09/04 12:42:46;;;;;;;0.68;0.28;;;30.70;92.70;;;;;;4395626;32;20504;-64